sensor_id;sensor_type;location;lat;lon;timestamp;temperature;humidity
5419;DHT22;2732;52.092;11.556;2023-05-06T00:03:42;13.30;99.90
5419;DHT22;2732;52.092;11.556;2023-05-06T00:08:43;13.20;99.90
5419;DHT22;2732;52.092;11.556;2023-05-06T00:13:44;13.20;99.90
5419;DHT22;2732;52.092;11.556;2023-05-06T00:18:45;13.20;99.90
5419;DHT22;2732;52.092;11.556;2023-05-06T00:23:46;13.10;99.90
5419;DHT22;2732;52.092;11.556;2023-05-06T00:28:48;13.10;99.90
5419;DHT22;2732;52.092;11.556;2023-05-06T00:33:48;13.00;99.90
5419;DHT22;2732;52.092;11.556;2023-05-06T00:38:50;13.00;99.90
5419;DHT22;2732;52.092;11.556;2023-05-06T00:43:50;13.00;99.90
5419;DHT22;2732;52.092;11.556;2023-05-06T00:48:51;13.00;99.90
5419;DHT22;2732;52.092;11.556;2023-05-06T00:53:52;13.00;99.90
5419;DHT22;2732;52.092;11.556;2023-05-06T00:58:53;12.90;99.90
5419;DHT22;2732;52.092;11.556;2023-05-06T01:03:54;12.90;99.90
5419;DHT22;2732;52.092;11.556;2023-05-06T01:09:31;12.90;99.90
5419;DHT22;2732;52.092;11.556;2023-05-06T01:14:40;12.90;99.90
5419;DHT22;2732;52.092;11.556;2023-05-06T01:19:48;12.80;99.90
5419;DHT22;2732;52.092;11.556;2023-05-06T01:24:50;12.80;99.90
5419;DHT22;2732;52.092;11.556;2023-05-06T01:29:51;12.80;99.90
5419;DHT22;2732;52.092;11.556;2023-05-06T01:35:09;12.70;99.90
5419;DHT22;2732;52.092;11.556;2023-05-06T01:40:16;12.70;99.90
5419;DHT22;2732;52.092;11.556;2023-05-06T01:45:18;12.70;99.90
5419;DHT22;2732;52.092;11.556;2023-05-06T01:50:20;12.60;99.90
5419;DHT22;2732;52.092;11.556;2023-05-06T01:55:21;12.60;99.90
5419;DHT22;2732;52.092;11.556;2023-05-06T02:00:22;12.50;99.90
5419;DHT22;2732;52.092;11.556;2023-05-06T02:05:24;12.50;99.90
5419;DHT22;2732;52.092;11.556;2023-05-06T02:10:25;12.40;99.90
5419;DHT22;2732;52.092;11.556;2023-05-06T02:15:28;12.40;99.90
5419;DHT22;2732;52.092;11.556;2023-05-06T02:20:29;12.40;99.90
5419;DHT22;2732;52.092;11.556;2023-05-06T02:25:30;12.30;99.90
5419;DHT22;2732;52.092;11.556;2023-05-06T02:30:30;12.20;99.90
5419;DHT22;2732;52.092;11.556;2023-05-06T02:35:31;12.20;99.90
5419;DHT22;2732;52.092;11.556;2023-05-06T02:40:32;12.20;99.90
5419;DHT22;2732;52.092;11.556;2023-05-06T02:45:32;12.10;99.90
5419;DHT22;2732;52.092;11.556;2023-05-06T02:50:34;12.10;99.90
5419;DHT22;2732;52.092;11.556;2023-05-06T02:55:35;12.00;99.90
5419;DHT22;2732;52.092;11.556;2023-05-06T03:00:36;12.00;99.90
5419;DHT22;2732;52.092;11.556;2023-05-06T03:05:36;12.00;99.90
5419;DHT22;2732;52.092;11.556;2023-05-06T03:10:37;12.00;99.90
5419;DHT22;2732;52.092;11.556;2023-05-06T03:15:37;12.00;99.90
5419;DHT22;2732;52.092;11.556;2023-05-06T03:20:38;12.00;99.90
5419;DHT22;2732;52.092;11.556;2023-05-06T03:25:38;12.00;99.90
5419;DHT22;2732;52.092;11.556;2023-05-06T03:30:39;12.00;99.90
5419;DHT22;2732;52.092;11.556;2023-05-06T03:35:40;12.00;99.90
5419;DHT22;2732;52.092;11.556;2023-05-06T03:40:40;12.00;99.90
5419;DHT22;2732;52.092;11.556;2023-05-06T03:45:41;11.90;99.90
5419;DHT22;2732;52.092;11.556;2023-05-06T03:50:42;11.90;99.90
5419;DHT22;2732;52.092;11.556;2023-05-06T03:55:42;11.90;99.90
5419;DHT22;2732;52.092;11.556;2023-05-06T04:00:43;11.90;99.90
5419;DHT22;2732;52.092;11.556;2023-05-06T04:05:45;11.90;99.90
5419;DHT22;2732;52.092;11.556;2023-05-06T04:10:47;11.90;99.90
5419;DHT22;2732;52.092;11.556;2023-05-06T04:15:49;11.90;99.90
5419;DHT22;2732;52.092;11.556;2023-05-06T04:20:50;12.00;99.90
5419;DHT22;2732;52.092;11.556;2023-05-06T04:25:50;12.00;99.90
5419;DHT22;2732;52.092;11.556;2023-05-06T04:30:52;12.00;99.90
5419;DHT22;2732;52.092;11.556;2023-05-06T04:35:52;12.00;99.90
5419;DHT22;2732;52.092;11.556;2023-05-06T04:40:53;12.10;99.90
5419;DHT22;2732;52.092;11.556;2023-05-06T04:45:54;12.10;99.90
5419;DHT22;2732;52.092;11.556;2023-05-06T04:50:55;12.20;99.90
5419;DHT22;2732;52.092;11.556;2023-05-06T04:55:55;12.20;99.90
5419;DHT22;2732;52.092;11.556;2023-05-06T05:00:56;12.30;99.90
5419;DHT22;2732;52.092;11.556;2023-05-06T05:05:57;12.40;99.90
5419;DHT22;2732;52.092;11.556;2023-05-06T05:10:57;12.40;99.90
5419;DHT22;2732;52.092;11.556;2023-05-06T05:15:58;12.50;99.90
5419;DHT22;2732;52.092;11.556;2023-05-06T05:20:59;12.50;99.90
5419;DHT22;2732;52.092;11.556;2023-05-06T05:26:00;12.50;99.90
5419;DHT22;2732;52.092;11.556;2023-05-06T05:31:02;12.50;99.90
5419;DHT22;2732;52.092;11.556;2023-05-06T05:36:03;12.50;99.90
5419;DHT22;2732;52.092;11.556;2023-05-06T05:41:04;12.50;99.90
5419;DHT22;2732;52.092;11.556;2023-05-06T05:46:04;12.60;99.90
5419;DHT22;2732;52.092;11.556;2023-05-06T05:51:05;12.60;99.90
5419;DHT22;2732;52.092;11.556;2023-05-06T05:56:06;12.70;99.90
5419;DHT22;2732;52.092;11.556;2023-05-06T06:01:09;12.70;99.90
5419;DHT22;2732;52.092;11.556;2023-05-06T06:06:09;12.80;99.90
5419;DHT22;2732;52.092;11.556;2023-05-06T06:11:10;12.80;99.90
5419;DHT22;2732;52.092;11.556;2023-05-06T06:16:11;12.90;99.90
5419;DHT22;2732;52.092;11.556;2023-05-06T06:21:12;12.90;99.90
5419;DHT22;2732;52.092;11.556;2023-05-06T06:26:12;12.90;99.90
5419;DHT22;2732;52.092;11.556;2023-05-06T06:31:13;12.90;99.90
5419;DHT22;2732;52.092;11.556;2023-05-06T06:36:13;12.90;99.90
5419;DHT22;2732;52.092;11.556;2023-05-06T06:41:14;12.80;99.90
5419;DHT22;2732;52.092;11.556;2023-05-06T06:46:15;12.80;99.90
5419;DHT22;2732;52.092;11.556;2023-05-06T06:51:16;12.80;99.90
5419;DHT22;2732;52.092;11.556;2023-05-06T06:56:16;12.90;99.90
5419;DHT22;2732;52.092;11.556;2023-05-06T07:01:17;13.00;99.90
5419;DHT22;2732;52.092;11.556;2023-05-06T07:06:18;13.10;99.90
5419;DHT22;2732;52.092;11.556;2023-05-06T07:11:18;13.20;99.90
5419;DHT22;2732;52.092;11.556;2023-05-06T07:16:19;13.30;99.90
5419;DHT22;2732;52.092;11.556;2023-05-06T07:21:20;13.40;99.90
5419;DHT22;2732;52.092;11.556;2023-05-06T07:26:20;13.50;99.90
5419;DHT22;2732;52.092;11.556;2023-05-06T07:31:21;13.50;99.90
5419;DHT22;2732;52.092;11.556;2023-05-06T07:36:21;13.60;99.90
5419;DHT22;2732;52.092;11.556;2023-05-06T07:41:22;13.80;99.90
5419;DHT22;2732;52.092;11.556;2023-05-06T07:46:23;13.90;99.90
5419;DHT22;2732;52.092;11.556;2023-05-06T07:51:23;14.10;99.90
5419;DHT22;2732;52.092;11.556;2023-05-06T07:56:24;14.20;99.90
5419;DHT22;2732;52.092;11.556;2023-05-06T08:01:24;14.20;99.90
5419;DHT22;2732;52.092;11.556;2023-05-06T08:06:25;14.40;99.90
5419;DHT22;2732;52.092;11.556;2023-05-06T08:11:26;14.50;99.90
5419;DHT22;2732;52.092;11.556;2023-05-06T08:16:28;14.60;99.90
5419;DHT22;2732;52.092;11.556;2023-05-06T08:21:29;14.80;99.90
5419;DHT22;2732;52.092;11.556;2023-05-06T08:26:31;15.10;99.90
5419;DHT22;2732;52.092;11.556;2023-05-06T08:31:31;15.50;99.90
5419;DHT22;2732;52.092;11.556;2023-05-06T08:36:32;15.80;99.90
5419;DHT22;2732;52.092;11.556;2023-05-06T08:41:33;15.90;99.90
5419;DHT22;2732;52.092;11.556;2023-05-06T08:46:36;15.90;99.90
5419;DHT22;2732;52.092;11.556;2023-05-06T08:51:37;15.90;99.90
5419;DHT22;2732;52.092;11.556;2023-05-06T08:56:44;15.90;99.90
5419;DHT22;2732;52.092;11.556;2023-05-06T09:01:45;15.80;99.90
5419;DHT22;2732;52.092;11.556;2023-05-06T09:06:46;15.80;99.90
5419;DHT22;2732;52.092;11.556;2023-05-06T09:11:48;15.70;99.90
5419;DHT22;2732;52.092;11.556;2023-05-06T09:16:53;15.60;99.90
5419;DHT22;2732;52.092;11.556;2023-05-06T09:21:54;15.70;99.90
5419;DHT22;2732;52.092;11.556;2023-05-06T09:26:55;16.20;99.90
5419;DHT22;2732;52.092;11.556;2023-05-06T09:31:56;16.70;99.90
5419;DHT22;2732;52.092;11.556;2023-05-06T09:36:57;16.90;99.90
5419;DHT22;2732;52.092;11.556;2023-05-06T09:41:58;16.90;99.90
5419;DHT22;2732;52.092;11.556;2023-05-06T09:46:59;17.10;99.90
5419;DHT22;2732;52.092;11.556;2023-05-06T09:52:00;17.50;99.90
5419;DHT22;2732;52.092;11.556;2023-05-06T09:57:02;17.90;99.90
5419;DHT22;2732;52.092;11.556;2023-05-06T10:02:04;18.00;99.90
5419;DHT22;2732;52.092;11.556;2023-05-06T10:07:06;18.30;99.90
5419;DHT22;2732;52.092;11.556;2023-05-06T10:12:13;18.50;99.90
5419;DHT22;2732;52.092;11.556;2023-05-06T10:17:15;18.60;99.90
5419;DHT22;2732;52.092;11.556;2023-05-06T10:22:41;18.70;99.90
5419;DHT22;2732;52.092;11.556;2023-05-06T10:27:55;18.60;99.90
5419;DHT22;2732;52.092;11.556;2023-05-06T10:32:58;18.50;99.90
5419;DHT22;2732;52.092;11.556;2023-05-06T10:38:04;18.30;99.90
5419;DHT22;2732;52.092;11.556;2023-05-06T10:43:33;18.20;99.90
5419;DHT22;2732;52.092;11.556;2023-05-06T10:48:36;18.10;99.90
5419;DHT22;2732;52.092;11.556;2023-05-06T10:54:02;18.10;99.90
5419;DHT22;2732;52.092;11.556;2023-05-06T10:59:10;17.90;99.90
5419;DHT22;2732;52.092;11.556;2023-05-06T11:04:13;17.90;99.90
5419;DHT22;2732;52.092;11.556;2023-05-06T11:09:22;18.00;99.90
5419;DHT22;2732;52.092;11.556;2023-05-06T11:14:35;18.10;99.90
5419;DHT22;2732;52.092;11.556;2023-05-06T11:19:37;18.10;99.90
5419;DHT22;2732;52.092;11.556;2023-05-06T11:24:41;18.10;99.90
5419;DHT22;2732;52.092;11.556;2023-05-06T11:29:43;18.20;99.90
5419;DHT22;2732;52.092;11.556;2023-05-06T11:34:43;18.40;99.90
5419;DHT22;2732;52.092;11.556;2023-05-06T11:39:49;18.60;99.90
5419;DHT22;2732;52.092;11.556;2023-05-06T11:44:52;18.80;99.90
5419;DHT22;2732;52.092;11.556;2023-05-06T11:49:57;19.00;99.90
5419;DHT22;2732;52.092;11.556;2023-05-06T11:54:58;19.20;99.90
5419;DHT22;2732;52.092;11.556;2023-05-06T11:59:58;19.20;99.90
5419;DHT22;2732;52.092;11.556;2023-05-06T12:05:01;19.30;99.90
5419;DHT22;2732;52.092;11.556;2023-05-06T12:10:02;19.30;99.90
5419;DHT22;2732;52.092;11.556;2023-05-06T12:15:03;20.10;99.90
5419;DHT22;2732;52.092;11.556;2023-05-06T12:20:05;20.50;99.90
5419;DHT22;2732;52.092;11.556;2023-05-06T12:25:13;20.60;99.90
5419;DHT22;2732;52.092;11.556;2023-05-06T12:30:15;20.60;99.90
5419;DHT22;2732;52.092;11.556;2023-05-06T12:35:30;20.60;99.90
5419;DHT22;2732;52.092;11.556;2023-05-06T12:40:32;20.70;99.90
5419;DHT22;2732;52.092;11.556;2023-05-06T12:45:32;20.60;99.90
5419;DHT22;2732;52.092;11.556;2023-05-06T12:50:39;20.50;99.90
5419;DHT22;2732;52.092;11.556;2023-05-06T12:55:41;20.20;99.90
5419;DHT22;2732;52.092;11.556;2023-05-06T13:00:42;20.10;99.90
5419;DHT22;2732;52.092;11.556;2023-05-06T13:05:42;20.00;99.90
5419;DHT22;2732;52.092;11.556;2023-05-06T13:10:43;19.90;99.90
5419;DHT22;2732;52.092;11.556;2023-05-06T13:15:44;20.10;99.90
5419;DHT22;2732;52.092;11.556;2023-05-06T13:20:44;20.30;99.90
5419;DHT22;2732;52.092;11.556;2023-05-06T13:25:45;21.00;99.30
5419;DHT22;2732;52.092;11.556;2023-05-06T13:37:01;22.10;98.00
5419;DHT22;2732;52.092;11.556;2023-05-06T13:42:02;22.00;97.90
5419;DHT22;2732;52.092;11.556;2023-05-06T13:47:03;22.60;97.20
5419;DHT22;2732;52.092;11.556;2023-05-06T13:52:04;23.00;96.90
5419;DHT22;2732;52.092;11.556;2023-05-06T13:57:04;23.30;96.60
5419;DHT22;2732;52.092;11.556;2023-05-06T14:02:05;23.40;96.10
5419;DHT22;2732;52.092;11.556;2023-05-06T14:07:05;23.70;95.50
5419;DHT22;2732;52.092;11.556;2023-05-06T14:12:06;23.80;95.10
5419;DHT22;2732;52.092;11.556;2023-05-06T14:17:07;23.00;94.70
5419;DHT22;2732;52.092;11.556;2023-05-06T14:22:09;22.60;95.00
5419;DHT22;2732;52.092;11.556;2023-05-06T14:27:10;22.30;95.00
5419;DHT22;2732;52.092;11.556;2023-05-06T14:32:13;22.00;94.90
5419;DHT22;2732;52.092;11.556;2023-05-06T14:37:14;21.70;95.10
5419;DHT22;2732;52.092;11.556;2023-05-06T14:42:15;21.40;95.10
5419;DHT22;2732;52.092;11.556;2023-05-06T14:47:16;21.10;95.10
5419;DHT22;2732;52.092;11.556;2023-05-06T14:52:17;21.20;95.20
5419;DHT22;2732;52.092;11.556;2023-05-06T14:57:17;21.00;95.10
5419;DHT22;2732;52.092;11.556;2023-05-06T15:02:18;20.70;95.30
5419;DHT22;2732;52.092;11.556;2023-05-06T15:07:19;20.40;95.40
5419;DHT22;2732;52.092;11.556;2023-05-06T15:12:19;20.20;95.50
5419;DHT22;2732;52.092;11.556;2023-05-06T15:17:20;20.20;95.60
5419;DHT22;2732;52.092;11.556;2023-05-06T15:22:21;20.50;95.30
5419;DHT22;2732;52.092;11.556;2023-05-06T15:27:21;20.90;95.10
5419;DHT22;2732;52.092;11.556;2023-05-06T15:32:22;21.30;95.10
5419;DHT22;2732;52.092;11.556;2023-05-06T15:37:23;21.30;94.80
5419;DHT22;2732;52.092;11.556;2023-05-06T15:42:24;20.90;94.80
5419;DHT22;2732;52.092;11.556;2023-05-06T15:47:24;20.50;94.80
5419;DHT22;2732;52.092;11.556;2023-05-06T15:52:25;20.20;95.40
5419;DHT22;2732;52.092;11.556;2023-05-06T15:57:28;19.90;95.10
5419;DHT22;2732;52.092;11.556;2023-05-06T16:02:29;19.50;95.10
5419;DHT22;2732;52.092;11.556;2023-05-06T16:07:30;19.40;95.40
5419;DHT22;2732;52.092;11.556;2023-05-06T16:12:30;19.20;95.60
5419;DHT22;2732;52.092;11.556;2023-05-06T16:17:32;18.90;95.60
5419;DHT22;2732;52.092;11.556;2023-05-06T16:22:39;18.70;95.60
5419;DHT22;2732;52.092;11.556;2023-05-06T16:27:40;18.50;95.70
5419;DHT22;2732;52.092;11.556;2023-05-06T16:32:41;18.30;95.70
5419;DHT22;2732;52.092;11.556;2023-05-06T16:37:42;18.00;96.10
5419;DHT22;2732;52.092;11.556;2023-05-06T16:42:43;17.70;96.30
5419;DHT22;2732;52.092;11.556;2023-05-06T16:47:44;17.50;96.50
5419;DHT22;2732;52.092;11.556;2023-05-06T16:52:45;17.30;96.60
5419;DHT22;2732;52.092;11.556;2023-05-06T16:57:46;17.20;96.80
5419;DHT22;2732;52.092;11.556;2023-05-06T17:02:46;17.00;97.00
5419;DHT22;2732;52.092;11.556;2023-05-06T17:07:47;16.80;97.10
5419;DHT22;2732;52.092;11.556;2023-05-06T17:12:48;16.60;97.20
5419;DHT22;2732;52.092;11.556;2023-05-06T17:17:49;16.40;97.30
5419;DHT22;2732;52.092;11.556;2023-05-06T17:22:50;16.20;97.60
5419;DHT22;2732;52.092;11.556;2023-05-06T17:27:51;15.90;97.80
5419;DHT22;2732;52.092;11.556;2023-05-06T17:32:52;15.70;97.90
5419;DHT22;2732;52.092;11.556;2023-05-06T17:37:52;15.50;98.00
5419;DHT22;2732;52.092;11.556;2023-05-06T17:42:54;15.40;98.30
5419;DHT22;2732;52.092;11.556;2023-05-06T17:47:55;15.20;98.40
5419;DHT22;2732;52.092;11.556;2023-05-06T17:52:55;15.10;98.50
5419;DHT22;2732;52.092;11.556;2023-05-06T17:57:56;14.90;98.60
5419;DHT22;2732;52.092;11.556;2023-05-06T18:02:58;14.80;98.70
5419;DHT22;2732;52.092;11.556;2023-05-06T18:07:58;14.60;99.00
5419;DHT22;2732;52.092;11.556;2023-05-06T18:12:59;14.40;99.20
5419;DHT22;2732;52.092;11.556;2023-05-06T18:18:00;14.30;99.50
5419;DHT22;2732;52.092;11.556;2023-05-06T18:23:00;14.10;99.60
5419;DHT22;2732;52.092;11.556;2023-05-06T18:28:01;14.00;99.80
5419;DHT22;2732;52.092;11.556;2023-05-06T18:33:04;13.90;99.90
5419;DHT22;2732;52.092;11.556;2023-05-06T18:38:04;13.70;99.90
5419;DHT22;2732;52.092;11.556;2023-05-06T18:43:05;13.60;99.90
5419;DHT22;2732;52.092;11.556;2023-05-06T18:48:07;13.50;99.90
5419;DHT22;2732;52.092;11.556;2023-05-06T18:53:08;13.30;99.90
5419;DHT22;2732;52.092;11.556;2023-05-06T18:58:08;13.20;99.90
5419;DHT22;2732;52.092;11.556;2023-05-06T19:03:09;13.10;99.90
5419;DHT22;2732;52.092;11.556;2023-05-06T19:08:10;13.00;99.90
5419;DHT22;2732;52.092;11.556;2023-05-06T19:13:12;12.90;99.90
5419;DHT22;2732;52.092;11.556;2023-05-06T19:18:13;12.80;99.90
5419;DHT22;2732;52.092;11.556;2023-05-06T19:23:14;12.70;99.90
5419;DHT22;2732;52.092;11.556;2023-05-06T19:28:14;12.60;99.90
5419;DHT22;2732;52.092;11.556;2023-05-06T19:33:15;12.50;99.90
5419;DHT22;2732;52.092;11.556;2023-05-06T19:38:15;12.40;99.90
5419;DHT22;2732;52.092;11.556;2023-05-06T19:43:16;12.30;99.90
5419;DHT22;2732;52.092;11.556;2023-05-06T19:48:16;12.30;99.90
5419;DHT22;2732;52.092;11.556;2023-05-06T19:53:18;12.20;99.90
5419;DHT22;2732;52.092;11.556;2023-05-06T19:58:21;12.10;99.90
5419;DHT22;2732;52.092;11.556;2023-05-06T20:03:22;12.10;99.90
5419;DHT22;2732;52.092;11.556;2023-05-06T20:08:22;12.00;99.90
5419;DHT22;2732;52.092;11.556;2023-05-06T20:13:23;12.00;99.90
5419;DHT22;2732;52.092;11.556;2023-05-06T20:18:24;11.90;99.90
5419;DHT22;2732;52.092;11.556;2023-05-06T20:23:25;11.90;99.90
5419;DHT22;2732;52.092;11.556;2023-05-06T20:28:25;11.90;99.90
5419;DHT22;2732;52.092;11.556;2023-05-06T20:33:26;11.80;99.90
5419;DHT22;2732;52.092;11.556;2023-05-06T20:38:26;11.70;99.90
5419;DHT22;2732;52.092;11.556;2023-05-06T20:43:30;11.70;99.90
5419;DHT22;2732;52.092;11.556;2023-05-06T20:48:34;11.60;99.90
5419;DHT22;2732;52.092;11.556;2023-05-06T20:53:35;11.60;99.90
5419;DHT22;2732;52.092;11.556;2023-05-06T20:58:36;11.60;99.90
5419;DHT22;2732;52.092;11.556;2023-05-06T21:03:36;11.50;99.90
5419;DHT22;2732;52.092;11.556;2023-05-06T21:08:37;11.50;99.90
5419;DHT22;2732;52.092;11.556;2023-05-06T21:13:38;11.50;99.90
5419;DHT22;2732;52.092;11.556;2023-05-06T21:18:39;11.40;99.90
5419;DHT22;2732;52.092;11.556;2023-05-06T21:23:40;11.40;99.90
5419;DHT22;2732;52.092;11.556;2023-05-06T21:28:41;11.40;99.90
5419;DHT22;2732;52.092;11.556;2023-05-06T21:33:41;11.30;99.90
5419;DHT22;2732;52.092;11.556;2023-05-06T21:38:42;11.30;99.90
5419;DHT22;2732;52.092;11.556;2023-05-06T21:43:42;11.20;99.90
5419;DHT22;2732;52.092;11.556;2023-05-06T21:48:43;11.20;99.90
5419;DHT22;2732;52.092;11.556;2023-05-06T21:53:48;11.10;99.90
5419;DHT22;2732;52.092;11.556;2023-05-06T21:58:52;11.10;99.90
5419;DHT22;2732;52.092;11.556;2023-05-06T22:03:55;11.00;99.90
5419;DHT22;2732;52.092;11.556;2023-05-06T22:08:55;11.00;99.90
5419;DHT22;2732;52.092;11.556;2023-05-06T22:13:56;11.00;99.90
5419;DHT22;2732;52.092;11.556;2023-05-06T22:18:57;10.90;99.90
5419;DHT22;2732;52.092;11.556;2023-05-06T22:23:58;10.90;99.90
5419;DHT22;2732;52.092;11.556;2023-05-06T22:28:59;10.90;99.90
5419;DHT22;2732;52.092;11.556;2023-05-06T22:34:00;10.90;99.90
5419;DHT22;2732;52.092;11.556;2023-05-06T22:39:03;10.80;99.90
5419;DHT22;2732;52.092;11.556;2023-05-06T22:44:04;10.80;99.90
5419;DHT22;2732;52.092;11.556;2023-05-06T22:49:04;10.80;99.90
5419;DHT22;2732;52.092;11.556;2023-05-06T22:54:05;10.80;99.90
5419;DHT22;2732;52.092;11.556;2023-05-06T22:59:06;10.70;99.90
5419;DHT22;2732;52.092;11.556;2023-05-06T23:04:07;10.70;99.90
5419;DHT22;2732;52.092;11.556;2023-05-06T23:09:10;10.70;99.90
5419;DHT22;2732;52.092;11.556;2023-05-06T23:14:11;10.70;99.90
5419;DHT22;2732;52.092;11.556;2023-05-06T23:19:12;10.70;99.90
5419;DHT22;2732;52.092;11.556;2023-05-06T23:24:13;10.70;99.90
5419;DHT22;2732;52.092;11.556;2023-05-06T23:29:14;10.60;99.90
5419;DHT22;2732;52.092;11.556;2023-05-06T23:34:14;10.60;99.90
5419;DHT22;2732;52.092;11.556;2023-05-06T23:39:15;10.60;99.90
5419;DHT22;2732;52.092;11.556;2023-05-06T23:44:15;10.60;99.90
5419;DHT22;2732;52.092;11.556;2023-05-06T23:49:16;10.50;99.90
5419;DHT22;2732;52.092;11.556;2023-05-06T23:54:16;10.50;99.90
5419;DHT22;2732;52.092;11.556;2023-05-06T23:59:17;10.50;99.90
